Time;durP1;ratioP1;P1;durP2;ratioP2;P2;SDS_P1;SDS_P2;PMS_P1;PMS_P2;Temp;Humidity;BMP_temperature;BMP_pressure;BME280_temperature;BME280_humidity;BME280_pressure;Samples;Min_cycle;Max_cycle;Signal;HPM_P1;HPM_P2
2022/03/15 00:00:23;;;;;;;11.93;10.93;;;;;;;22.59;23.36;96735.38;6180931;28;104128;-44
2022/03/15 00:03:25;;;;;;;10.93;10.00;;;;;;;22.57;23.41;96726.84;6181992;28;103451;-44
2022/03/15 00:06:27;;;;;;;11.57;10.60;;;;;;;22.59;23.40;96724.72;6176997;28;104285;-44
2022/03/15 00:09:29;;;;;;;11.80;10.80;;;;;;;22.58;23.12;96717.78;6181397;28;103206;-44
2022/03/15 00:12:32;;;;;;;10.60;9.70;;;;;;;22.58;23.53;96723.09;6181835;28;103338;-45
2022/03/15 00:15:35;;;;;;;11.17;10.27;;;;;;;22.59;22.96;96722.03;6177157;28;103195;-45
2022/03/15 00:18:38;;;;;;;10.30;9.50;;;;;;;22.58;22.91;96723.91;6186150;28;103006;-43
2022/03/15 00:21:40;;;;;;;10.13;9.33;;;;;;;22.59;22.91;96724.72;6185554;28;104079;-43
2022/03/15 00:24:42;;;;;;;10.33;9.53;;;;;;;22.59;22.97;96724.72;6176942;28;103384;-43
2022/03/15 00:27:46;;;;;;;11.10;10.10;;;;;;;22.57;23.12;96724.97;6161917;28;103128;-43
2022/03/15 00:30:52;;;;;;;10.50;9.60;;;;;;;22.58;23.14;96728.44;6160890;28;103746;-43
2022/03/15 00:33:54;;;;;;;10.57;9.67;;;;;;;22.56;22.86;96723.38;6172669;28;103057;-43
2022/03/15 00:36:56;;;;;;;10.20;9.40;;;;;;;22.56;23.05;96725.22;6178401;28;102905;-43
2022/03/15 00:39:58;;;;;;;9.50;8.70;;;;;;;22.56;23.15;96715.38;6167491;28;103075;-43
2022/03/15 00:43:00;;;;;;;10.20;9.20;;;;;;;22.56;23.10;96717.25;6184355;28;103244;-43
2022/03/15 00:46:02;;;;;;;10.13;9.23;;;;;;;22.56;22.90;96717.25;6174840;28;104207;-43
2022/03/15 00:49:04;;;;;;;10.33;9.47;;;;;;;22.55;22.95;96713.78;6173011;28;103925;-43
2022/03/15 00:52:06;;;;;;;10.13;9.23;;;;;;;22.56;22.76;96720.69;6178710;28;104072;-43
2022/03/15 00:55:08;;;;;;;10.47;9.53;;;;;;;22.56;22.89;96711.91;6177228;28;103328;-43
2022/03/15 00:58:11;;;;;;;9.63;8.83;;;;;;;22.54;23.20;96712.19;6184352;28;104070;-43
2022/03/15 01:01:12;;;;;;;9.23;8.53;;;;;;;22.55;22.67;96704.97;6163071;28;105169;-43
2022/03/15 01:04:15;;;;;;;10.37;9.47;;;;;;;22.54;22.89;96693.53;6185858;28;103079;-43
2022/03/15 01:07:16;;;;;;;9.97;9.17;;;;;;;22.54;22.54;96695.41;6191001;28;103990;-44
2022/03/15 01:10:18;;;;;;;9.37;8.57;;;;;;;22.54;22.55;96695.41;6185696;28;103024;-43
2022/03/15 01:13:20;;;;;;;10.10;9.30;;;;;;;22.54;22.92;96687.41;6167055;28;103235;-43
2022/03/15 01:16:22;;;;;;;10.20;9.40;;;;;;;22.54;22.72;96679.41;6184023;28;103074;-44
2022/03/15 01:19:24;;;;;;;9.50;8.80;;;;;;;22.52;22.45;96688.47;6185374;28;104077;-43
2022/03/15 01:22:26;;;;;;;10.20;9.40;;;;;;;22.54;22.93;96684.75;6178935;28;103494;-43
2022/03/15 01:25:30;;;;;;;10.33;9.53;;;;;;;22.52;22.33;96696.47;6185174;28;103397;-43
2022/03/15 01:28:32;;;;;;;10.10;9.30;;;;;;;22.54;22.46;96701.53;6182866;28;103174;-43
2022/03/15 01:31:34;;;;;;;10.23;9.43;;;;;;;22.55;22.51;96691.66;6183042;28;103937;-43
2022/03/15 01:34:36;;;;;;;10.33;9.40;;;;;;;22.51;22.86;96697.53;6179224;28;103280;-43
2022/03/15 01:37:38;;;;;;;10.37;9.47;;;;;;;22.52;22.68;96688.47;6183677;28;103326;-43
2022/03/15 01:40:40;;;;;;;10.87;9.93;;;;;;;22.52;22.41;96693.00;6183435;28;103194;-51
2022/03/15 01:43:41;;;;;;;9.73;8.93;;;;;;;22.50;22.78;96701.22;6177946;28;103932;-44
2022/03/15 01:46:45;;;;;;;11.07;10.13;;;;;;;22.51;22.70;96691.41;6184318;28;103232;-43
2022/03/15 01:49:47;;;;;;;10.50;9.60;;;;;;;22.50;22.34;96687.91;6167003;28;103054;-43
2022/03/15 01:52:49;;;;;;;10.57;9.67;;;;;;;22.50;22.63;96703.88;6182782;28;102877;-43
2022/03/15 01:55:51;;;;;;;9.83;8.97;;;;;;;22.51;22.36;96707.38;6178656;28;103236;-43
2022/03/15 01:58:53;;;;;;;9.93;9.13;;;;;;;22.49;22.40;96712.94;6182740;28;103926;-43
2022/03/15 02:01:55;;;;;;;9.93;9.13;;;;;;;22.50;22.47;96719.06;6183021;28;103323;-43
2022/03/15 02:04:58;;;;;;;10.30;9.50;;;;;;;22.48;22.33;96722.00;6184454;28;104266;-43
2022/03/15 02:08:10;;;;;;;9.90;9.10;;;;;;;22.48;22.33;96714.00;6177639;28;102995;-42
2022/03/15 02:11:13;;;;;;;9.57;8.77;;;;;;;22.49;22.57;96712.94;6183661;28;103970;-42
2022/03/15 02:14:15;;;;;;;9.83;9.03;;;;;;;22.48;22.58;96706.00;6182630;28;103143;-43
2022/03/15 02:17:16;;;;;;;9.43;8.70;;;;;;;22.48;22.47;96702.53;6178630;28;104430;-43
2022/03/15 02:20:19;;;;;;;9.03;8.23;;;;;;;22.48;22.63;96708.66;6183659;28;103080;-43
2022/03/15 02:23:21;;;;;;;9.97;9.17;;;;;;;22.46;22.08;96708.13;6183792;28;103077;-43
2022/03/15 02:26:22;;;;;;;9.23;8.53;;;;;;;22.47;22.19;96708.94;6182613;28;103410;-43
2022/03/15 02:29:24;;;;;;;10.20;9.40;;;;;;;22.45;22.72;96697.75;6187439;28;103311;-43
2022/03/15 02:32:26;;;;;;;10.90;9.90;;;;;;;22.44;22.24;96683.63;6183738;28;104194;-43
2022/03/15 02:35:28;;;;;;;9.93;9.23;;;;;;;22.45;22.37;96684.44;6183460;28;103285;-43
2022/03/15 02:38:30;;;;;;;10.50;9.70;;;;;;;22.45;22.21;96681.75;6177295;28;104023;-43
2022/03/15 02:41:32;;;;;;;11.37;10.37;;;;;;;22.44;22.10;96672.97;6183157;28;104568;-43
2022/03/15 02:44:34;;;;;;;10.07;9.27;;;;;;;22.43;22.40;96663.38;6182068;28;103030;-42
2022/03/15 02:47:36;;;;;;;11.73;10.73;;;;;;;22.45;22.24;96679.91;6183031;28;102815;-43
2022/03/15 02:50:38;;;;;;;10.53;9.67;;;;;;;22.46;22.02;96678.03;6176988;28;103029;-43
2022/03/15 02:53:41;;;;;;;9.87;9.03;;;;;;;22.45;22.06;96685.22;6182539;28;103039;-43
2022/03/15 02:56:43;;;;;;;11.20;10.20;;;;;;;22.45;22.17;96676.44;6182198;28;102924;-43
2022/03/15 02:59:45;;;;;;;11.40;10.40;;;;;;;22.45;22.42;96676.44;6182137;28;103475;-42
2022/03/15 03:02:47;;;;;;;11.77;10.70;;;;;;;22.44;22.19;96677.50;6176721;28;104327;-43
2022/03/15 03:05:48;;;;;;;11.80;10.80;;;;;;;22.42;22.39;96677.75;6183158;28;104697;-43
2022/03/15 03:08:50;;;;;;;10.80;9.90;;;;;;;22.43;22.14;96678.56;6182946;28;104267;-42
2022/03/15 03:11:52;;;;;;;10.17;9.37;;;;;;;22.41;22.08;96676.16;6176143;28;103649;-43
2022/03/15 03:14:55;;;;;;;10.60;9.80;;;;;;;22.42;22.28;96677.75;6182034;28;103192;-43
2022/03/15 03:17:57;;;;;;;11.03;10.00;;;;;;;22.42;21.98;96674.31;6182036;28;103393;-43
2022/03/15 03:21:01;;;;;;;9.93;9.10;;;;;;;22.42;22.41;96677.75;6182149;28;104359;-44
2022/03/15 03:24:06;;;;;;;10.00;9.20;;;;;;;22.42;22.02;96672.44;6177531;28;104157;-43
2022/03/15 03:27:11;;;;;;;11.03;10.03;;;;;;;22.42;22.30;96661.00;6182195;28;104274;-43
2022/03/15 03:30:13;;;;;;;12.03;11.03;;;;;;;22.42;22.20;96655.66;6157869;28;104219;-43
2022/03/15 03:33:16;;;;;;;11.37;10.37;;;;;;;22.41;22.18;96652.19;6177100;28;103270;-43
2022/03/15 03:36:18;;;;;;;11.20;10.30;;;;;;;22.41;22.01;96652.19;6180744;28;103019;-43
2022/03/15 03:39:19;;;;;;;11.70;10.70;;;;;;;22.41;22.11;96644.22;6181934;28;103135;-43
2022/03/15 03:42:21;;;;;;;11.33;10.43;;;;;;;22.41;21.75;96657.53;6180874;28;103015;-43
2022/03/15 03:45:23;;;;;;;11.40;10.50;;;;;;;22.42;22.16;96661.78;6177577;28;103374;-43
2022/03/15 03:48:25;;;;;;;11.67;10.77;;;;;;;22.41;22.00;96660.19;6182071;28;103086;-43
2022/03/15 03:51:27;;;;;;;12.57;11.47;;;;;;;22.41;21.81;96651.41;6184577;28;103368;-43
2022/03/15 03:54:29;;;;;;;11.93;11.03;;;;;;;22.39;22.21;96662.31;6185756;28;102807;-44
2022/03/15 03:57:31;;;;;;;13.30;12.20;;;;;;;22.40;21.97;96669.25;6166788;28;103590;-43
2022/03/15 04:00:33;;;;;;;13.53;12.23;;;;;;;22.41;22.00;96678.03;6185981;28;103341;-43
2022/03/15 04:03:35;;;;;;;12.77;11.67;;;;;;;22.41;21.57;96686.81;6184775;28;102986;-43
2022/03/15 04:06:39;;;;;;;12.73;11.67;;;;;;;22.41;21.98;96699.34;6181164;28;104372;-43
2022/03/15 04:09:41;;;;;;;12.70;11.60;;;;;;;22.41;22.15;96702.81;6184803;28;103396;-44
2022/03/15 04:12:44;;;;;;;12.37;11.30;;;;;;;22.40;21.91;96701.19;6185914;28;103186;-43
2022/03/15 04:15:46;;;;;;;12.33;11.20;;;;;;;22.41;22.06;96710.00;6186195;28;104423;-43
2022/03/15 04:18:48;;;;;;;13.60;12.40;;;;;;;22.37;22.19;96706.25;6178740;28;104135;-45
2022/03/15 04:21:49;;;;;;;13.70;12.53;;;;;;;22.32;22.20;96708.88;6185765;28;103480;-45
2022/03/15 04:24:51;;;;;;;14.87;13.67;;;;;;;22.35;22.88;96709.16;6186323;28;103270;-45
2022/03/15 04:27:56;;;;;;;15.20;13.80;;;;;;;22.38;23.48;96718.50;6184441;28;103220;-45
2022/03/15 04:30:58;;;;;;;19.00;13.57;;;;;;;22.44;23.11;96718.25;6174164;28;103407;-44
2022/03/15 04:34:00;;;;;;;15.53;14.13;;;;;;;22.52;22.78;96731.09;6177905;28;103916;-44
2022/03/15 04:37:02;;;;;;;15.07;13.67;;;;;;;22.56;23.13;96719.91;6185460;28;104133;-44
2022/03/15 04:40:07;;;;;;;15.37;13.97;;;;;;;22.54;22.72;96722.84;6180134;28;104373;-45
2022/03/15 04:43:12;;;;;;;15.63;14.30;;;;;;;22.46;23.07;96724.13;6181208;28;103066;-45
2022/03/15 04:46:14;;;;;;;16.43;14.83;;;;;;;22.37;23.50;96725.69;6176752;28;103435;-44
2022/03/15 04:49:16;;;;;;;15.07;13.83;;;;;;;22.36;23.34;96731.28;6182970;28;103133;-45
2022/03/15 04:52:18;;;;;;;15.00;13.70;;;;;;;22.42;24.17;96728.38;6177008;28;104038;-46
2022/03/15 04:55:20;;;;;;;16.07;14.37;;;;;;;22.50;23.48;96733.19;6178876;28;102994;-45
2022/03/15 04:58:23;;;;;;;16.63;13.70;;;;;;;22.52;24.35;96731.09;6195028;28;104306;-44
2022/03/15 05:01:25;;;;;;;15.87;14.33;;;;;;;22.63;23.77;96728.44;6178165;28;105082;-44
2022/03/15 05:04:26;;;;;;;15.00;13.60;;;;;;;22.66;24.25;96719.91;6180371;28;104026;-45
2022/03/15 05:07:29;;;;;;;14.70;13.40;;;;;;;22.67;24.00;96724.19;6185686;28;103002;-45
2022/03/15 05:13:52;;;;;;;15.47;13.67;;;;;;;22.84;25.03;96724.00;6177682;28;103059;-45
2022/03/15 05:16:53;;;;;;;16.63;14.90;;;;;;;22.81;25.14;96733.28;6182786;28;103320;-45
2022/03/15 05:19:55;;;;;;;15.73;14.13;;;;;;;22.84;25.07;96727.47;6183851;28;104082;-45
2022/03/15 05:22:57;;;;;;;16.13;14.40;;;;;;;22.85;25.65;96729.09;6185547;28;104250;-46
2022/03/15 05:26:02;;;;;;;16.97;15.17;;;;;;;22.69;24.95;96730.88;6174239;28;103773;-46
2022/03/15 05:29:04;;;;;;;15.33;13.67;;;;;;;22.61;24.93;96731.38;6183964;28;103263;-46
2022/03/15 05:32:08;;;;;;;14.13;12.83;;;;;;;22.55;24.69;96723.63;6185090;28;104274;-46
2022/03/15 05:35:10;;;;;;;14.70;13.30;;;;;;;22.51;24.51;96729.47;6178488;28;104030;-46
2022/03/15 05:38:12;;;;;;;15.13;13.63;;;;;;;22.48;24.62;96724.66;6185786;28;104109;-45
2022/03/15 05:41:14;;;;;;;14.83;13.40;;;;;;;22.44;24.65;96720.91;6182169;28;103566;-45
2022/03/15 05:44:27;;;;;;;15.03;13.60;;;;;;;22.43;24.26;96716.66;6182886;28;104392;-46
2022/03/15 05:47:29;;;;;;;14.67;13.10;;;;;;;22.43;24.47;96716.66;6177400;28;103436;-46
2022/03/15 05:50:31;;;;;;;15.13;13.67;;;;;;;22.43;23.97;96718.50;6182201;28;103342;-46
2022/03/15 05:53:32;;;;;;;14.83;13.50;;;;;;;22.44;23.93;96723.56;6182063;28;103373;-45
2022/03/15 05:56:34;;;;;;;15.23;12.90;;;;;;;22.45;24.11;96725.19;6178553;28;103250;-46
2022/03/15 05:59:36;;;;;;;14.40;13.10;;;;;;;22.48;23.70;96724.66;6183751;28;103340;-46
2022/03/15 06:02:39;;;;;;;16.50;15.20;;;;;;;22.50;24.04;96729.72;6184684;28;104249;-46
2022/03/15 06:05:41;;;;;;;17.67;16.17;;;;;;;22.54;23.61;96732.69;6183970;28;104206;-46
2022/03/15 06:08:43;;;;;;;19.23;15.50;;;;;;;22.58;23.58;96728.44;6179528;28;103466;-46
2022/03/15 06:11:45;;;;;;;17.77;16.07;;;;;;;22.61;23.71;96733.22;6183491;28;103085;-44
2022/03/15 06:14:47;;;;;;;19.27;17.60;;;;;;;22.62;23.61;96746.28;6183571;28;103134;-44
2022/03/15 06:17:56;;;;;;;19.53;17.83;;;;;;;22.66;23.62;96738.56;6183997;28;103007;-46
2022/03/15 06:20:58;;;;;;;21.17;19.30;;;;;;;22.70;23.64;96737.00;6179470;28;103974;-46
2022/03/15 06:24:00;;;;;;;23.90;21.50;;;;;;;22.75;23.44;96745.00;6193292;28;103296;-45
2022/03/15 06:27:08;;;;;;;24.13;22.03;;;;;;;22.81;23.19;96741.28;6208944;28;103355;-46
2022/03/15 06:30:12;;;;;;;26.43;23.90;;;;;;;22.83;23.33;96741.84;6203641;28;104665;-45
2022/03/15 06:33:14;;;;;;;26.57;24.27;;;;;;;22.87;23.06;96740.28;6207587;28;103168;-45
2022/03/15 06:36:16;;;;;;;30.67;27.97;;;;;;;22.98;23.50;96749.09;6208156;28;102783;-45
2022/03/15 06:39:18;;;;;;;31.03;28.03;;;;;;;23.03;23.44;96747.25;6208697;28;103248;-45
2022/03/15 06:42:20;;;;;;;33.60;30.70;;;;;;;23.08;23.65;96747.28;6185457;28;103267;-45
2022/03/15 06:45:23;;;;;;;33.60;30.73;;;;;;;23.15;23.16;96749.66;6208596;28;104110;-45
2022/03/15 06:48:25;;;;;;;34.77;31.87;;;;;;;23.20;23.59;96756.91;6208339;28;103282;-46
2022/03/15 06:51:27;;;;;;;35.23;32.10;;;;;;;23.24;23.53;96747.28;6206161;28;103977;-44
2022/03/15 06:54:29;;;;;;;36.30;33.00;;;;;;;23.27;23.42;96742.22;6180491;28;103079;-45
2022/03/15 06:57:32;;;;;;;35.97;32.83;;;;;;;23.32;23.24;96752.09;6183456;28;103412;-45
2022/03/15 07:00:33;;;;;;;37.00;33.90;;;;;;;23.35;23.54;96743.59;6183345;28;103536;-45
2022/03/15 07:03:36;;;;;;;35.70;32.70;;;;;;;23.39;23.08;96750.78;6177555;28;103168;-46
2022/03/15 07:06:38;;;;;;;37.57;34.37;;;;;;;23.44;23.21;96752.66;6182902;28;104328;-46
2022/03/15 07:09:39;;;;;;;35.40;32.40;;;;;;;23.49;23.54;96749.19;6182926;28;103152;-46
2022/03/15 07:12:41;;;;;;;37.57;34.27;;;;;;;23.53;23.61;96747.59;6183485;28;103454;-46
2022/03/15 07:15:43;;;;;;;37.30;34.10;;;;;;;23.57;23.27;96762.84;6177865;28;102954;-45
2022/03/15 07:18:45;;;;;;;35.30;32.40;;;;;;;23.58;23.23;96761.75;6182975;28;103185;-46
2022/03/15 07:21:47;;;;;;;36.30;33.40;;;;;;;23.60;23.00;96751.63;6182694;28;103283;-46
2022/03/15 07:24:50;;;;;;;34.00;31.00;;;;;;;23.62;23.16;96757.50;6161835;28;104542;-46
2022/03/15 07:27:52;;;;;;;35.03;32.03;;;;;;;23.67;23.27;96762.00;6157898;28;103198;-45
2022/03/15 07:30:53;;;;;;;33.80;31.00;;;;;;;23.69;22.86;96760.72;6157958;28;103811;-46
2022/03/15 07:33:55;;;;;;;34.37;31.33;;;;;;;23.72;22.89;96756.69;6158101;28;104126;-47
2022/03/15 07:36:57;;;;;;;35.10;32.20;;;;;;;23.72;22.94;96758.56;6152621;28;103709;-46
2022/03/15 07:39:59;;;;;;;35.37;32.37;;;;;;;23.72;23.15;96762.03;6157665;28;104255;-46
2022/03/15 07:43:02;;;;;;;35.30;32.30;;;;;;;23.72;23.10;96763.91;6158309;28;103953;-46
2022/03/15 07:46:04;;;;;;;36.00;33.00;;;;;;;23.76;23.35;96770.31;6157474;28;103068;-46
2022/03/15 07:49:05;;;;;;;35.07;31.97;;;;;;;23.76;22.93;96746.28;6153306;28;104078;-46
2022/03/15 07:52:09;;;;;;;33.27;30.50;;;;;;;23.78;23.15;96746.81;6162410;28;103322;-46
2022/03/15 07:55:11;;;;;;;33.83;30.93;;;;;;;23.79;23.06;96749.22;6181589;28;104184;-46
2022/03/15 07:58:12;;;;;;;33.83;30.87;;;;;;;23.81;23.30;96743.59;6177671;28;104264;-46
2022/03/15 08:01:14;;;;;;;35.73;32.63;;;;;;;23.82;22.74;96742.53;6182267;28;103394;-46
2022/03/15 08:04:16;;;;;;;35.33;32.23;;;;;;;23.82;23.13;96739.88;6182577;28;103091;-46
2022/03/15 08:07:21;;;;;;;33.33;30.60;;;;;;;23.84;23.07;96741.19;6181420;28;103580;-46
2022/03/15 08:10:23;;;;;;;33.97;31.03;;;;;;;23.86;22.75;96733.75;6176061;28;103417;-46
2022/03/15 08:13:24;;;;;;;34.13;31.17;;;;;;;23.95;23.26;96740.13;6181744;28;102972;-46
2022/03/15 08:16:27;;;;;;;33.40;30.67;;;;;;;24.03;23.06;96738.78;6182251;28;103048;-47
2022/03/15 08:19:29;;;;;;;33.30;30.50;;;;;;;23.99;23.21;96733.16;6182512;28;102924;-45
2022/03/15 08:22:32;;;;;;;34.23;31.33;;;;;;;23.96;23.15;96733.72;6176704;28;104466;-46
2022/03/15 08:25:33;;;;;;;35.47;32.50;;;;;;;23.98;23.21;96731.56;6203536;28;102934;-46
2022/03/15 08:28:35;;;;;;;35.30;32.30;;;;;;;23.96;22.83;96725.69;6207028;28;104276;-46
2022/03/15 08:31:37;;;;;;;34.03;31.13;;;;;;;23.96;22.74;96727.56;6200445;28;103060;-46
2022/03/15 08:34:39;;;;;;;36.00;33.00;;;;;;;23.96;22.84;96720.34;6206451;28;103974;-46
2022/03/15 08:37:43;;;;;;;33.93;31.13;;;;;;;23.97;23.34;96723.81;6209123;28;103456;-46
2022/03/15 08:40:45;;;;;;;34.37;31.47;;;;;;;23.97;23.25;96718.50;6210824;28;103912;-46
2022/03/15 08:43:47;;;;;;;34.40;31.40;;;;;;;23.97;22.96;96721.16;6205022;28;104082;-46
2022/03/15 08:46:50;;;;;;;33.63;30.67;;;;;;;23.97;23.08;96713.16;6210317;28;104226;-48
2022/03/15 08:49:52;;;;;;;33.60;30.80;;;;;;;23.96;23.34;96712.34;6211127;28;103394;-45
2022/03/15 08:52:55;;;;;;;33.90;30.90;;;;;;;23.95;22.84;96693.94;6204318;28;103451;-46
2022/03/15 08:55:57;;;;;;;32.57;29.97;;;;;;;23.95;22.96;96699.28;6191433;28;103176;-46
2022/03/15 08:58:59;;;;;;;34.37;31.47;;;;;;;23.95;23.18;96694.72;6211456;28;103164;-46
2022/03/15 09:02:01;;;;;;;34.83;31.83;;;;;;;23.93;22.92;96682.72;6211240;28;104979;-46
2022/03/15 09:05:04;;;;;;;35.47;32.47;;;;;;;23.93;22.84;96686.19;6205298;28;103420;-46
2022/03/15 09:08:06;;;;;;;34.77;31.87;;;;;;;23.91;23.22;96685.66;6210018;28;103261;-47
2022/03/15 09:11:08;;;;;;;35.27;32.30;;;;;;;24.12;23.20;96677.59;6193183;28;102946;-44
2022/03/15 09:14:10;;;;;;;33.83;30.93;;;;;;;24.25;22.57;96672.47;6209902;28;103602;-43
2022/03/15 09:17:13;;;;;;;31.33;28.80;;;;;;;24.32;22.60;96669.53;6204244;28;104029;-44
2022/03/15 09:20:15;;;;;;;32.63;29.83;;;;;;;24.34;22.53;96666.59;6210283;28;103130;-43
2022/03/15 09:23:18;;;;;;;33.20;30.30;;;;;;;24.38;22.88;96662.31;6206140;28;102833;-43
2022/03/15 09:26:19;;;;;;;31.83;29.33;;;;;;;24.36;22.82;96659.94;6179466;28;103051;-44
2022/03/15 09:29:21;;;;;;;29.87;27.37;;;;;;;24.36;22.43;96659.13;6184721;28;103262;-43
2022/03/15 09:32:24;;;;;;;30.23;27.77;;;;;;;24.37;22.55;96655.38;6185046;28;103231;-43
2022/03/15 09:35:26;;;;;;;30.23;27.60;;;;;;;24.38;22.29;96652.44;6184685;28;103237;-44
2022/03/15 09:38:28;;;;;;;29.63;27.07;;;;;;;24.38;22.79;96651.63;6179222;28;104920;-44
2022/03/15 09:41:31;;;;;;;29.93;27.33;;;;;;;24.38;22.79;96643.63;6185034;28;103308;-44
2022/03/15 09:44:35;;;;;;;30.00;27.47;;;;;;;24.38;22.63;96640.94;6184256;28;103327;-44
2022/03/15 09:47:39;;;;;;;30.50;27.77;;;;;;;24.40;22.31;96641.47;6184632;28;104162;-44
2022/03/15 09:50:42;;;;;;;29.70;27.20;;;;;;;24.38;22.50;96638.28;6180148;28;103034;-44
2022/03/15 09:53:44;;;;;;;28.07;25.70;;;;;;;24.36;22.41;96635.09;6183628;28;105679;-44
2022/03/15 09:56:46;;;;;;;27.90;25.53;;;;;;;24.36;22.53;96640.44;6184352;28;103134;-44
2022/03/15 09:59:52;;;;;;;27.70;25.23;;;;;;;24.33;22.63;96631.06;6178997;28;103015;-44
2022/03/15 10:02:54;;;;;;;27.00;24.60;;;;;;;24.33;23.04;96630.25;6184434;28;103427;-44
2022/03/15 10:05:56;;;;;;;27.63;25.30;;;;;;;24.33;22.70;96632.94;6185084;28;103593;-46
2022/03/15 10:08:58;;;;;;;27.17;24.97;;;;;;;24.33;22.55;96606.22;6165537;28;104041;-45
2022/03/15 10:12:00;;;;;;;27.83;25.40;;;;;;;24.30;22.59;96603.03;6179306;28;103732;-44
2022/03/15 10:15:22;;;;;;;25.53;23.40;;;;;;;24.29;22.93;96596.09;6185063;28;103841;-45
2022/03/15 10:18:25;;;;;;;25.70;23.53;;;;;;;24.28;22.90;96591.00;6167562;28;102869;-44
2022/03/15 10:21:48;;;;;;;25.40;23.30;;;;;;;24.26;22.97;96585.13;6178768;28;103076;-44
2022/03/15 10:24:52;;;;;;;24.83;22.73;;;;;;;24.25;22.57;96587.00;6201648;28;103321;-43
2022/03/15 10:28:03;;;;;;;24.67;22.67;;;;;;;24.23;22.75;96586.50;6208632;28;102990;-43
2022/03/15 10:31:09;;;;;;;25.93;23.83;;;;;;;24.21;22.90;96585.19;6208491;28;103393;-43
2022/03/15 10:34:12;;;;;;;23.83;21.93;;;;;;;24.19;23.05;96579.31;6185346;28;103053;-43
2022/03/15 10:37:14;;;;;;;24.53;22.50;;;;;;;24.19;22.80;96574.78;6189751;28;103193;-43
2022/03/15 10:40:17;;;;;;;23.47;21.57;;;;;;;24.15;22.68;96575.56;6207512;28;103056;-43
2022/03/15 10:43:23;;;;;;;23.80;21.80;;;;;;;24.14;23.11;96564.09;6202885;28;104047;-43
2022/03/15 10:46:26;;;;;;;22.67;20.73;;;;;;;24.09;23.02;96564.13;6208023;28;102957;-43
2022/03/15 10:49:30;;;;;;;23.07;21.20;;;;;;;24.07;22.77;96558.25;6209376;28;103063;-43
2022/03/15 10:52:35;;;;;;;23.00;21.00;;;;;;;24.05;23.12;96548.94;6207652;28;103224;-43
2022/03/15 10:55:38;;;;;;;22.83;20.93;;;;;;;24.04;22.75;96545.47;6203342;28;103029;-43
2022/03/15 10:59:05;;;;;;;22.73;20.87;;;;;;;24.03;23.03;96543.88;6208366;28;103307;-44
2022/03/15 11:02:10;;;;;;;22.70;20.70;;;;;;;23.99;22.96;96532.13;6199171;28;104113;-43
2022/03/15 11:05:23;;;;;;;22.03;20.20;;;;;;;23.98;23.40;96527.84;6203650;28;103197;-43
2022/03/15 11:08:25;;;;;;;21.87;19.97;;;;;;;23.94;23.26;96514.25;6190555;28;102914;-43
2022/03/15 11:11:28;;;;;;;20.40;18.70;;;;;;;23.93;23.34;96520.69;6208446;28;104046;-43
2022/03/15 11:14:41;;;;;;;20.80;19.10;;;;;;;23.91;22.92;96511.34;6208618;28;104355;-43
2022/03/15 11:17:45;;;;;;;20.97;19.27;;;;;;;23.89;22.98;96500.94;6186214;28;102894;-42
2022/03/15 11:20:56;;;;;;;21.97;20.17;;;;;;;23.88;23.00;96488.69;6191304;28;103129;-42
2022/03/15 11:24:03;;;;;;;20.40;18.80;;;;;;;23.86;23.21;96476.69;6182335;28;103095;-42
2022/03/15 11:27:08;;;;;;;20.50;18.80;;;;;;;23.84;23.31;96481.47;6163041;28;103791;-43
2022/03/15 11:30:17;;;;;;;20.73;19.00;;;;;;;23.86;23.10;96477.47;6166552;28;103057;-43
2022/03/15 11:33:20;;;;;;;20.60;18.90;;;;;;;23.85;23.29;96470.56;6185101;28;103024;-43
2022/03/15 11:36:25;;;;;;;20.50;18.80;;;;;;;23.82;23.07;96471.06;6165298;28;103211;-43
2022/03/15 11:39:29;;;;;;;20.37;18.77;;;;;;;23.82;23.21;96464.94;6177320;28;103403;-43
2022/03/15 11:42:35;;;;;;;19.10;17.57;;;;;;;23.82;23.19;96457.72;6181176;28;103045;-43
2022/03/15 11:45:42;;;;;;;19.47;17.87;;;;;;;23.79;23.05;96457.50;6182675;28;103825;-42
2022/03/15 11:48:55;;;;;;;20.27;18.57;;;;;;;23.79;23.01;96449.47;6180254;28;104339;-43
2022/03/15 11:52:12;;;;;;;18.47;17.00;;;;;;;23.78;23.12;96448.69;6147076;28;103433;-42
2022/03/15 11:55:34;;;;;;;19.83;18.27;;;;;;;23.78;23.31;96442.56;6182346;28;103329;-42
2022/03/15 11:58:36;;;;;;;18.93;17.33;;;;;;;23.75;23.65;96435.91;6181871;28;103071;-42
2022/03/15 12:01:46;;;;;;;18.60;17.10;;;;;;;23.72;23.23;96431.13;6177289;28;103312;-44
2022/03/15 12:04:48;;;;;;;19.37;17.73;;;;;;;23.69;23.32;96419.13;6182347;28;103001;-43
2022/03/15 12:08:15;;;;;;;18.20;16.60;;;;;;;23.68;23.72;96409.53;6181530;28;103041;-42
2022/03/15 12:11:30;;;;;;;18.00;16.47;;;;;;;23.66;23.34;96408.19;6178787;28;104399;-43
2022/03/15 12:14:40;;;;;;;18.13;16.70;;;;;;;23.63;23.55;96406.88;6169566;28;103073;-43
2022/03/15 12:17:42;;;;;;;18.07;16.40;;;;;;;23.63;23.74;96398.06;6168792;28;103391;-42
2022/03/15 12:20:47;;;;;;;18.43;16.93;;;;;;;23.60;23.56;96394.09;6186693;28;104169;-42
2022/03/15 12:23:50;;;;;;;17.43;16.00;;;;;;;23.59;23.87;96395.16;6188847;28;103793;-42
2022/03/15 12:27:01;;;;;;;17.70;16.30;;;;;;;23.59;23.56;96384.50;6210975;28;103209;-43
2022/03/15 12:30:05;;;;;;;16.80;15.50;;;;;;;23.58;23.77;96390.91;6211073;28;103280;-42
2022/03/15 12:33:07;;;;;;;18.17;16.67;;;;;;;23.56;23.80;96376.22;6205829;28;104147;-42
2022/03/15 12:36:09;;;;;;;17.10;15.60;;;;;;;23.55;23.58;96372.75;6210286;28;103202;-42
2022/03/15 12:39:14;;;;;;;17.43;16.03;;;;;;;23.55;23.55;96378.09;6210713;28;104386;-42
2022/03/15 12:42:27;;;;;;;16.77;15.37;;;;;;;23.53;23.67;96372.22;6194295;28;104302;-42
2022/03/15 12:45:29;;;;;;;17.10;15.70;;;;;;;23.52;23.40;96370.63;6204019;28;103441;-42
2022/03/15 12:48:36;;;;;;;15.67;14.47;;;;;;;23.52;23.63;96375.19;6210018;28;102963;-42
2022/03/15 12:51:43;;;;;;;16.20;15.00;;;;;;;23.49;23.86;96363.16;6209345;28;103018;-42
2022/03/15 12:54:45;;;;;;;15.90;14.60;;;;;;;23.50;23.29;96367.41;6210136;28;104099;-42
2022/03/15 12:57:52;;;;;;;17.37;15.87;;;;;;;23.50;23.45;96369.28;6205135;28;103886;-42
2022/03/15 13:00:54;;;;;;;15.40;14.20;;;;;;;23.49;23.70;96357.03;6210748;28;103267;-42
2022/03/15 13:03:56;;;;;;;15.47;14.17;;;;;;;23.46;23.86;96353.03;6210214;28;104033;-42
2022/03/15 13:07:04;;;;;;;15.37;14.10;;;;;;;23.48;23.49;96350.09;6204903;28;104104;-42
2022/03/15 13:10:08;;;;;;;15.10;13.83;;;;;;;23.59;24.06;96346.34;6210338;28;103701;-42
2022/03/15 13:13:27;;;;;;;15.53;14.23;;;;;;;23.63;23.50;96342.84;6210204;28;102765;-42
2022/03/15 13:16:29;;;;;;;14.60;13.40;;;;;;;23.64;24.13;96339.09;6209935;28;104123;-42
2022/03/15 13:19:33;;;;;;;15.70;14.40;;;;;;;23.69;24.29;96340.94;6203722;28;104105;-42
2022/03/15 13:22:35;;;;;;;14.73;13.53;;;;;;;23.68;24.18;96337.47;6209241;28;104241;-42
2022/03/15 13:25:45;;;;;;;14.73;13.53;;;;;;;23.70;23.96;96322.00;6187667;28;102979;-42
2022/03/15 13:28:50;;;;;;;13.90;12.80;;;;;;;23.72;24.43;96328.91;6179203;28;103728;-42
2022/03/15 13:31:58;;;;;;;14.20;13.10;;;;;;;23.74;24.77;96326.75;6185466;28;104217;-42
2022/03/15 13:35:00;;;;;;;13.90;12.80;;;;;;;23.75;24.62;96323.03;6184766;28;104028;-41
2022/03/15 13:38:14;;;;;;;13.93;12.83;;;;;;;23.72;24.77;96310.25;6185417;28;103099;-42
2022/03/15 13:41:19;;;;;;;13.40;12.30;;;;;;;23.64;24.70;96314.28;6179293;28;103245;-42
2022/03/15 13:44:23;;;;;;;13.53;12.37;;;;;;;23.56;24.53;96312.97;6185120;28;103958;-42
2022/03/15 13:47:27;;;;;;;13.40;12.30;;;;;;;23.53;24.67;96302.88;6184696;28;104001;-43
2022/03/15 13:50:29;;;;;;;13.20;12.20;;;;;;;23.50;24.29;96303.41;6178509;28;103977;-43
2022/03/15 13:53:31;;;;;;;13.30;12.30;;;;;;;23.49;24.11;96301.00;6184376;28;103489;-43
2022/03/15 13:56:48;;;;;;;13.07;11.97;;;;;;;23.47;24.64;96295.97;6184357;28;102979;-43
2022/03/15 14:00:23;;;;;;;13.27;12.27;;;;;;;23.44;24.49;96283.19;6184681;28;103806;-43